sensor_id;sensor_type;location;lat;lon;timestamp;P1;durP1;ratioP1;P2;durP2;ratioP2
30697;SDS011;17448;47.200;10.902;2023-04-15T00:02:16;2.33;;;1.48;;
30697;SDS011;17448;47.200;10.902;2023-04-15T00:04:46;3.28;;;1.80;;
30697;SDS011;17448;47.200;10.902;2023-04-15T00:07:13;3.95;;;1.38;;
30697;SDS011;17448;47.200;10.902;2023-04-15T00:09:40;2.67;;;1.70;;
30697;SDS011;17448;47.200;10.902;2023-04-15T00:12:07;3.40;;;1.77;;
30697;SDS011;17448;47.200;10.902;2023-04-15T00:14:34;2.03;;;1.52;;
30697;SDS011;17448;47.200;10.902;2023-04-15T00:17:01;4.05;;;1.60;;
30697;SDS011;17448;47.200;10.902;2023-04-15T00:19:27;2.58;;;1.58;;
30697;SDS011;17448;47.200;10.902;2023-04-15T00:21:54;4.07;;;1.73;;
30697;SDS011;17448;47.200;10.902;2023-04-15T00:24:20;3.80;;;1.50;;
30697;SDS011;17448;47.200;10.902;2023-04-15T00:26:47;2.55;;;1.55;;
30697;SDS011;17448;47.200;10.902;2023-04-15T00:29:13;2.55;;;1.60;;
30697;SDS011;17448;47.200;10.902;2023-04-15T00:31:40;2.03;;;1.55;;
30697;SDS011;17448;47.200;10.902;2023-04-15T00:34:06;2.95;;;1.60;;
30697;SDS011;17448;47.200;10.902;2023-04-15T00:36:33;4.07;;;1.75;;
30697;SDS011;17448;47.200;10.902;2023-04-15T00:39:00;2.10;;;1.88;;
30697;SDS011;17448;47.200;10.902;2023-04-15T00:41:27;3.97;;;1.58;;
30697;SDS011;17448;47.200;10.902;2023-04-15T00:43:53;2.63;;;1.70;;
30697;SDS011;17448;47.200;10.902;2023-04-15T00:46:20;4.63;;;1.67;;
30697;SDS011;17448;47.200;10.902;2023-04-15T00:48:47;4.30;;;1.55;;
30697;SDS011;17448;47.200;10.902;2023-04-15T00:51:13;1.63;;;1.50;;
30697;SDS011;17448;47.200;10.902;2023-04-15T00:53:40;5.00;;;1.60;;
30697;SDS011;17448;47.200;10.902;2023-04-15T00:56:06;2.58;;;1.48;;
30697;SDS011;17448;47.200;10.902;2023-04-15T00:58:32;7.88;;;1.85;;
30697;SDS011;17448;47.200;10.902;2023-04-15T01:00:59;3.85;;;1.60;;
30697;SDS011;17448;47.200;10.902;2023-04-15T01:03:25;2.78;;;1.40;;
30697;SDS011;17448;47.200;10.902;2023-04-15T01:05:52;2.78;;;1.58;;
30697;SDS011;17448;47.200;10.902;2023-04-15T01:08:31;2.38;;;1.65;;
30697;SDS011;17448;47.200;10.902;2023-04-15T01:10:58;3.17;;;1.67;;
30697;SDS011;17448;47.200;10.902;2023-04-15T01:13:27;2.85;;;1.40;;
30697;SDS011;17448;47.200;10.902;2023-04-15T01:15:54;4.30;;;1.63;;
30697;SDS011;17448;47.200;10.902;2023-04-15T01:18:22;3.78;;;2.30;;
30697;SDS011;17448;47.200;10.902;2023-04-15T01:20:48;6.53;;;1.67;;
30697;SDS011;17448;47.200;10.902;2023-04-15T01:23:15;4.55;;;1.40;;
30697;SDS011;17448;47.200;10.902;2023-04-15T01:25:41;3.45;;;1.65;;
30697;SDS011;17448;47.200;10.902;2023-04-15T01:28:08;2.08;;;1.55;;
30697;SDS011;17448;47.200;10.902;2023-04-15T01:30:35;4.28;;;1.60;;
30697;SDS011;17448;47.200;10.902;2023-04-15T01:33:02;3.90;;;1.65;;
30697;SDS011;17448;47.200;10.902;2023-04-15T01:35:28;1.88;;;1.48;;
30697;SDS011;17448;47.200;10.902;2023-04-15T01:37:54;4.03;;;1.80;;
30697;SDS011;17448;47.200;10.902;2023-04-15T01:40:26;2.67;;;1.67;;
30697;SDS011;17448;47.200;10.902;2023-04-15T01:42:53;2.90;;;1.77;;
30697;SDS011;17448;47.200;10.902;2023-04-15T01:45:19;5.93;;;1.77;;
30697;SDS011;17448;47.200;10.902;2023-04-15T01:47:45;2.63;;;1.35;;
30697;SDS011;17448;47.200;10.902;2023-04-15T01:50:11;2.00;;;1.45;;
30697;SDS011;17448;47.200;10.902;2023-04-15T01:52:38;4.28;;;2.00;;
30697;SDS011;17448;47.200;10.902;2023-04-15T01:55:04;6.03;;;1.60;;
30697;SDS011;17448;47.200;10.902;2023-04-15T01:57:32;2.53;;;1.88;;
30697;SDS011;17448;47.200;10.902;2023-04-15T01:59:59;3.33;;;1.50;;
30697;SDS011;17448;47.200;10.902;2023-04-15T02:02:25;2.00;;;1.38;;
30697;SDS011;17448;47.200;10.902;2023-04-15T02:04:54;2.58;;;1.52;;
30697;SDS011;17448;47.200;10.902;2023-04-15T02:07:20;3.92;;;1.80;;
30697;SDS011;17448;47.200;10.902;2023-04-15T02:09:47;2.67;;;1.60;;
30697;SDS011;17448;47.200;10.902;2023-04-15T02:12:13;2.47;;;1.55;;
30697;SDS011;17448;47.200;10.902;2023-04-15T02:14:39;2.97;;;1.40;;
30697;SDS011;17448;47.200;10.902;2023-04-15T02:17:05;2.63;;;1.60;;
30697;SDS011;17448;47.200;10.902;2023-04-15T02:19:35;2.33;;;1.50;;
30697;SDS011;17448;47.200;10.902;2023-04-15T02:22:02;3.83;;;1.90;;
30697;SDS011;17448;47.200;10.902;2023-04-15T02:24:29;2.38;;;1.48;;
30697;SDS011;17448;47.200;10.902;2023-04-15T02:26:55;4.15;;;1.50;;
30697;SDS011;17448;47.200;10.902;2023-04-15T02:29:22;3.08;;;1.30;;
30697;SDS011;17448;47.200;10.902;2023-04-15T02:31:48;2.13;;;1.70;;
30697;SDS011;17448;47.200;10.902;2023-04-15T02:34:15;2.47;;;1.38;;
30697;SDS011;17448;47.200;10.902;2023-04-15T02:36:43;4.15;;;1.88;;
30697;SDS011;17448;47.200;10.902;2023-04-15T02:39:13;3.88;;;1.50;;
30697;SDS011;17448;47.200;10.902;2023-04-15T02:41:41;4.05;;;1.40;;
30697;SDS011;17448;47.200;10.902;2023-04-15T02:44:09;3.63;;;1.52;;
30697;SDS011;17448;47.200;10.902;2023-04-15T02:46:37;2.45;;;1.70;;
30697;SDS011;17448;47.200;10.902;2023-04-15T02:49:05;4.10;;;1.67;;
30697;SDS011;17448;47.200;10.902;2023-04-15T02:51:34;2.83;;;1.55;;
30697;SDS011;17448;47.200;10.902;2023-04-15T02:54:00;4.70;;;1.85;;
30697;SDS011;17448;47.200;10.902;2023-04-15T02:56:26;1.92;;;1.13;;
30697;SDS011;17448;47.200;10.902;2023-04-15T02:58:54;3.05;;;1.40;;
30697;SDS011;17448;47.200;10.902;2023-04-15T03:01:21;5.13;;;1.75;;
30697;SDS011;17448;47.200;10.902;2023-04-15T03:03:48;4.03;;;1.67;;
30697;SDS011;17448;47.200;10.902;2023-04-15T03:06:14;3.47;;;1.63;;
30697;SDS011;17448;47.200;10.902;2023-04-15T03:08:40;2.80;;;1.75;;
30697;SDS011;17448;47.200;10.902;2023-04-15T03:11:07;5.15;;;1.73;;
30697;SDS011;17448;47.200;10.902;2023-04-15T03:13:35;4.95;;;1.40;;
30697;SDS011;17448;47.200;10.902;2023-04-15T03:16:08;2.15;;;1.27;;
30697;SDS011;17448;47.200;10.902;2023-04-15T03:18:35;9.55;;;1.55;;
30697;SDS011;17448;47.200;10.902;2023-04-15T03:21:02;7.43;;;4.82;;
30697;SDS011;17448;47.200;10.902;2023-04-15T03:23:30;3.08;;;2.10;;
30697;SDS011;17448;47.200;10.902;2023-04-15T03:25:57;3.88;;;2.45;;
30697;SDS011;17448;47.200;10.902;2023-04-15T03:28:25;4.55;;;1.98;;
30697;SDS011;17448;47.200;10.902;2023-04-15T03:30:53;4.05;;;1.48;;
30697;SDS011;17448;47.200;10.902;2023-04-15T03:33:19;1.30;;;1.20;;
30697;SDS011;17448;47.200;10.902;2023-04-15T03:35:45;3.72;;;1.80;;
30697;SDS011;17448;47.200;10.902;2023-04-15T03:38:12;3.70;;;1.70;;
30697;SDS011;17448;47.200;10.902;2023-04-15T03:40:39;4.45;;;1.92;;
30697;SDS011;17448;47.200;10.902;2023-04-15T03:43:06;6.03;;;1.58;;
30697;SDS011;17448;47.200;10.902;2023-04-15T03:45:32;1.80;;;1.70;;
30697;SDS011;17448;47.200;10.902;2023-04-15T03:47:58;2.78;;;1.55;;
30697;SDS011;17448;47.200;10.902;2023-04-15T03:50:25;4.07;;;2.25;;
30697;SDS011;17448;47.200;10.902;2023-04-15T03:52:52;2.78;;;1.20;;
30697;SDS011;17448;47.200;10.902;2023-04-15T03:55:18;3.65;;;1.38;;
30697;SDS011;17448;47.200;10.902;2023-04-15T03:57:44;3.03;;;1.55;;
30697;SDS011;17448;47.200;10.902;2023-04-15T04:00:10;2.30;;;1.55;;
30697;SDS011;17448;47.200;10.902;2023-04-15T04:02:39;2.33;;;1.40;;
30697;SDS011;17448;47.200;10.902;2023-04-15T04:05:06;1.50;;;1.40;;
30697;SDS011;17448;47.200;10.902;2023-04-15T04:07:32;3.05;;;1.60;;
30697;SDS011;17448;47.200;10.902;2023-04-15T04:09:58;2.47;;;1.55;;
30697;SDS011;17448;47.200;10.902;2023-04-15T04:12:24;3.45;;;1.55;;
30697;SDS011;17448;47.200;10.902;2023-04-15T04:14:51;3.70;;;1.65;;
30697;SDS011;17448;47.200;10.902;2023-04-15T04:17:17;2.85;;;1.63;;
30697;SDS011;17448;47.200;10.902;2023-04-15T04:19:43;5.05;;;2.15;;
30697;SDS011;17448;47.200;10.902;2023-04-15T04:22:09;5.05;;;1.70;;
30697;SDS011;17448;47.200;10.902;2023-04-15T04:24:36;1.85;;;1.30;;
30697;SDS011;17448;47.200;10.902;2023-04-15T04:27:02;3.25;;;1.52;;
30697;SDS011;17448;47.200;10.902;2023-04-15T04:29:28;2.55;;;1.77;;
30697;SDS011;17448;47.200;10.902;2023-04-15T04:31:55;2.80;;;1.30;;
30697;SDS011;17448;47.200;10.902;2023-04-15T04:34:21;2.25;;;1.30;;
30697;SDS011;17448;47.200;10.902;2023-04-15T04:36:47;2.95;;;1.30;;
30697;SDS011;17448;47.200;10.902;2023-04-15T04:39:13;1.60;;;1.20;;
30697;SDS011;17448;47.200;10.902;2023-04-15T04:41:39;4.38;;;1.27;;
30697;SDS011;17448;47.200;10.902;2023-04-15T04:44:05;3.53;;;1.30;;
30697;SDS011;17448;47.200;10.902;2023-04-15T04:46:32;2.60;;;1.23;;
30697;SDS011;17448;47.200;10.902;2023-04-15T04:48:58;4.55;;;1.58;;
30697;SDS011;17448;47.200;10.902;2023-04-15T04:51:24;4.50;;;1.92;;
30697;SDS011;17448;47.200;10.902;2023-04-15T04:53:50;2.78;;;1.42;;
30697;SDS011;17448;47.200;10.902;2023-04-15T04:56:16;2.22;;;1.50;;
30697;SDS011;17448;47.200;10.902;2023-04-15T04:58:43;1.95;;;1.35;;
30697;SDS011;17448;47.200;10.902;2023-04-15T05:01:09;3.85;;;1.65;;
30697;SDS011;17448;47.200;10.902;2023-04-15T05:03:35;7.45;;;3.63;;
30697;SDS011;17448;47.200;10.902;2023-04-15T05:06:02;4.63;;;2.60;;
30697;SDS011;17448;47.200;10.902;2023-04-15T05:08:31;3.03;;;1.38;;
30697;SDS011;17448;47.200;10.902;2023-04-15T05:10:58;3.50;;;1.88;;
30697;SDS011;17448;47.200;10.902;2023-04-15T05:13:24;2.33;;;1.45;;
30697;SDS011;17448;47.200;10.902;2023-04-15T05:15:51;3.92;;;1.60;;
30697;SDS011;17448;47.200;10.902;2023-04-15T05:18:17;5.72;;;1.80;;
30697;SDS011;17448;47.200;10.902;2023-04-15T05:20:43;2.42;;;1.48;;
30697;SDS011;17448;47.200;10.902;2023-04-15T05:23:09;2.65;;;1.33;;
30697;SDS011;17448;47.200;10.902;2023-04-15T05:25:36;4.55;;;1.60;;
30697;SDS011;17448;47.200;10.902;2023-04-15T05:28:02;8.55;;;1.98;;
30697;SDS011;17448;47.200;10.902;2023-04-15T05:30:28;2.17;;;1.58;;
30697;SDS011;17448;47.200;10.902;2023-04-15T05:32:54;4.63;;;1.73;;
30697;SDS011;17448;47.200;10.902;2023-04-15T05:35:21;1.92;;;1.60;;
30697;SDS011;17448;47.200;10.902;2023-04-15T05:37:47;4.30;;;1.70;;
30697;SDS011;17448;47.200;10.902;2023-04-15T05:40:13;3.00;;;1.65;;
30697;SDS011;17448;47.200;10.902;2023-04-15T05:42:39;3.00;;;2.13;;
30697;SDS011;17448;47.200;10.902;2023-04-15T05:45:06;5.50;;;2.13;;
30697;SDS011;17448;47.200;10.902;2023-04-15T05:47:34;3.20;;;1.90;;
30697;SDS011;17448;47.200;10.902;2023-04-15T05:50:01;4.18;;;2.03;;
30697;SDS011;17448;47.200;10.902;2023-04-15T05:52:28;7.70;;;2.47;;
30697;SDS011;17448;47.200;10.902;2023-04-15T05:54:55;4.20;;;2.00;;
30697;SDS011;17448;47.200;10.902;2023-04-15T05:57:21;4.25;;;2.50;;
30697;SDS011;17448;47.200;10.902;2023-04-15T05:59:48;6.13;;;2.40;;
30697;SDS011;17448;47.200;10.902;2023-04-15T06:02:16;7.82;;;2.47;;
30697;SDS011;17448;47.200;10.902;2023-04-15T06:04:42;3.25;;;2.30;;
30697;SDS011;17448;47.200;10.902;2023-04-15T06:07:08;10.35;;;2.85;;
30697;SDS011;17448;47.200;10.902;2023-04-15T06:09:35;7.70;;;3.42;;
30697;SDS011;17448;47.200;10.902;2023-04-15T06:12:01;8.90;;;4.13;;
30697;SDS011;17448;47.200;10.902;2023-04-15T06:14:27;6.93;;;3.58;;
30697;SDS011;17448;47.200;10.902;2023-04-15T06:16:53;4.85;;;2.65;;
30697;SDS011;17448;47.200;10.902;2023-04-15T06:19:19;6.03;;;3.10;;
30697;SDS011;17448;47.200;10.902;2023-04-15T06:21:46;5.97;;;2.80;;
30697;SDS011;17448;47.200;10.902;2023-04-15T06:24:12;4.93;;;2.80;;
30697;SDS011;17448;47.200;10.902;2023-04-15T06:26:38;5.50;;;2.88;;
30697;SDS011;17448;47.200;10.902;2023-04-15T06:29:04;5.35;;;2.55;;
30697;SDS011;17448;47.200;10.902;2023-04-15T06:31:30;6.78;;;2.58;;
30697;SDS011;17448;47.200;10.902;2023-04-15T06:33:56;4.40;;;2.50;;
30697;SDS011;17448;47.200;10.902;2023-04-15T06:36:22;3.35;;;2.13;;
30697;SDS011;17448;47.200;10.902;2023-04-15T06:38:49;6.13;;;2.00;;
30697;SDS011;17448;47.200;10.902;2023-04-15T06:41:15;4.55;;;2.10;;
30697;SDS011;17448;47.200;10.902;2023-04-15T06:43:42;7.78;;;2.72;;
30697;SDS011;17448;47.200;10.902;2023-04-15T06:46:09;5.80;;;2.42;;
30697;SDS011;17448;47.200;10.902;2023-04-15T06:48:35;3.50;;;2.58;;
30697;SDS011;17448;47.200;10.902;2023-04-15T06:51:02;4.07;;;2.45;;
30697;SDS011;17448;47.200;10.902;2023-04-15T06:53:28;3.25;;;2.30;;
30697;SDS011;17448;47.200;10.902;2023-04-15T06:55:54;6.32;;;2.88;;
30697;SDS011;17448;47.200;10.902;2023-04-15T06:58:21;4.90;;;2.72;;
30697;SDS011;17448;47.200;10.902;2023-04-15T07:00:47;3.42;;;2.55;;
30697;SDS011;17448;47.200;10.902;2023-04-15T07:03:14;5.68;;;2.50;;
30697;SDS011;17448;47.200;10.902;2023-04-15T07:05:40;4.22;;;2.25;;
30697;SDS011;17448;47.200;10.902;2023-04-15T07:08:06;4.63;;;2.10;;
30697;SDS011;17448;47.200;10.902;2023-04-15T07:10:33;2.58;;;1.50;;
30697;SDS011;17448;47.200;10.902;2023-04-15T07:12:59;4.45;;;2.00;;
30697;SDS011;17448;47.200;10.902;2023-04-15T07:15:26;5.35;;;1.90;;
30697;SDS011;17448;47.200;10.902;2023-04-15T07:17:52;5.28;;;1.48;;
30697;SDS011;17448;47.200;10.902;2023-04-15T07:20:19;6.75;;;1.90;;
30697;SDS011;17448;47.200;10.902;2023-04-15T07:22:45;4.28;;;2.08;;
30697;SDS011;17448;47.200;10.902;2023-04-15T07:25:11;3.80;;;2.28;;
30697;SDS011;17448;47.200;10.902;2023-04-15T07:27:37;3.97;;;2.10;;
30697;SDS011;17448;47.200;10.902;2023-04-15T07:30:04;4.63;;;2.13;;
30697;SDS011;17448;47.200;10.902;2023-04-15T07:32:30;3.78;;;2.03;;
30697;SDS011;17448;47.200;10.902;2023-04-15T07:34:57;5.63;;;2.13;;
30697;SDS011;17448;47.200;10.902;2023-04-15T07:37:23;2.97;;;1.63;;
30697;SDS011;17448;47.200;10.902;2023-04-15T07:39:49;3.00;;;1.95;;
30697;SDS011;17448;47.200;10.902;2023-04-15T07:42:17;4.50;;;1.60;;
30697;SDS011;17448;47.200;10.902;2023-04-15T07:44:43;2.78;;;1.73;;
30697;SDS011;17448;47.200;10.902;2023-04-15T07:47:09;3.40;;;1.85;;
30697;SDS011;17448;47.200;10.902;2023-04-15T07:49:36;3.35;;;1.63;;
30697;SDS011;17448;47.200;10.902;2023-04-15T07:52:02;3.58;;;1.70;;
30697;SDS011;17448;47.200;10.902;2023-04-15T07:54:29;3.78;;;2.00;;
30697;SDS011;17448;47.200;10.902;2023-04-15T07:56:55;2.78;;;1.90;;
30697;SDS011;17448;47.200;10.902;2023-04-15T07:59:21;3.72;;;1.73;;
30697;SDS011;17448;47.200;10.902;2023-04-15T08:01:47;3.40;;;2.30;;
30697;SDS011;17448;47.200;10.902;2023-04-15T08:04:14;2.40;;;2.00;;
30697;SDS011;17448;47.200;10.902;2023-04-15T08:06:40;4.45;;;2.20;;
30697;SDS011;17448;47.200;10.902;2023-04-15T08:09:06;4.25;;;2.47;;
30697;SDS011;17448;47.200;10.902;2023-04-15T08:11:32;5.60;;;2.00;;
30697;SDS011;17448;47.200;10.902;2023-04-15T08:13:58;3.63;;;2.30;;
30697;SDS011;17448;47.200;10.902;2023-04-15T08:16:25;3.97;;;2.25;;
30697;SDS011;17448;47.200;10.902;2023-04-15T08:18:53;5.85;;;2.10;;
30697;SDS011;17448;47.200;10.902;2023-04-15T08:21:20;8.27;;;2.42;;
30697;SDS011;17448;47.200;10.902;2023-04-15T08:23:47;4.65;;;2.13;;
30697;SDS011;17448;47.200;10.902;2023-04-15T08:26:15;2.88;;;2.00;;
30697;SDS011;17448;47.200;10.902;2023-04-15T08:28:42;4.18;;;1.80;;
30697;SDS011;17448;47.200;10.902;2023-04-15T08:31:09;2.95;;;1.95;;
30697;SDS011;17448;47.200;10.902;2023-04-15T08:33:35;2.83;;;1.75;;
30697;SDS011;17448;47.200;10.902;2023-04-15T08:36:01;3.70;;;1.90;;
30697;SDS011;17448;47.200;10.902;2023-04-15T08:38:27;3.55;;;2.08;;
30697;SDS011;17448;47.200;10.902;2023-04-15T08:40:54;1.90;;;1.58;;
30697;SDS011;17448;47.200;10.902;2023-04-15T08:43:21;4.28;;;1.75;;
30697;SDS011;17448;47.200;10.902;2023-04-15T08:45:51;4.10;;;1.67;;
30697;SDS011;17448;47.200;10.902;2023-04-15T08:48:18;3.30;;;2.03;;
30697;SDS011;17448;47.200;10.902;2023-04-15T08:50:45;3.17;;;1.83;;
30697;SDS011;17448;47.200;10.902;2023-04-15T08:53:11;3.45;;;2.28;;
30697;SDS011;17448;47.200;10.902;2023-04-15T08:55:41;2.95;;;2.15;;
30697;SDS011;17448;47.200;10.902;2023-04-15T08:58:09;3.60;;;1.92;;
30697;SDS011;17448;47.200;10.902;2023-04-15T09:00:36;2.58;;;1.80;;
30697;SDS011;17448;47.200;10.902;2023-04-15T09:03:05;3.67;;;1.55;;
30697;SDS011;17448;47.200;10.902;2023-04-15T09:05:32;2.65;;;1.73;;
30697;SDS011;17448;47.200;10.902;2023-04-15T09:07:59;4.30;;;2.30;;
30697;SDS011;17448;47.200;10.902;2023-04-15T09:10:25;5.57;;;2.25;;
30697;SDS011;17448;47.200;10.902;2023-04-15T09:12:51;3.50;;;1.98;;
30697;SDS011;17448;47.200;10.902;2023-04-15T09:15:18;2.10;;;1.80;;
30697;SDS011;17448;47.200;10.902;2023-04-15T09:17:44;5.25;;;2.50;;
30697;SDS011;17448;47.200;10.902;2023-04-15T09:20:12;4.75;;;2.75;;
30697;SDS011;17448;47.200;10.902;2023-04-15T09:22:39;3.90;;;1.40;;
30697;SDS011;17448;47.200;10.902;2023-04-15T09:25:27;5.63;;;2.00;;
30697;SDS011;17448;47.200;10.902;2023-04-15T09:27:59;3.58;;;1.77;;
30697;SDS011;17448;47.200;10.902;2023-04-15T09:30:26;2.67;;;1.90;;
30697;SDS011;17448;47.200;10.902;2023-04-15T09:32:54;3.15;;;1.73;;
30697;SDS011;17448;47.200;10.902;2023-04-15T09:35:22;2.75;;;1.40;;
30697;SDS011;17448;47.200;10.902;2023-04-15T09:37:49;3.90;;;1.77;;
30697;SDS011;17448;47.200;10.902;2023-04-15T09:42:57;2.42;;;1.80;;
30697;SDS011;17448;47.200;10.902;2023-04-15T09:45:24;2.80;;;1.45;;
30697;SDS011;17448;47.200;10.902;2023-04-15T09:47:50;1.92;;;1.30;;
30697;SDS011;17448;47.200;10.902;2023-04-15T09:50:17;2.65;;;1.38;;
30697;SDS011;17448;47.200;10.902;2023-04-15T09:52:44;3.08;;;1.80;;
30697;SDS011;17448;47.200;10.902;2023-04-15T09:55:10;2.88;;;1.15;;
30697;SDS011;17448;47.200;10.902;2023-04-15T09:57:37;5.30;;;1.63;;
30697;SDS011;17448;47.200;10.902;2023-04-15T10:00:06;3.83;;;1.70;;
30697;SDS011;17448;47.200;10.902;2023-04-15T10:02:34;1.75;;;1.23;;
30697;SDS011;17448;47.200;10.902;2023-04-15T10:05:01;1.77;;;0.98;;
30697;SDS011;17448;47.200;10.902;2023-04-15T10:07:27;4.63;;;1.30;;
30697;SDS011;17448;47.200;10.902;2023-04-15T10:09:53;2.83;;;1.30;;
30697;SDS011;17448;47.200;10.902;2023-04-15T10:12:20;2.85;;;1.08;;
30697;SDS011;17448;47.200;10.902;2023-04-15T10:14:47;4.28;;;1.27;;
30697;SDS011;17448;47.200;10.902;2023-04-15T10:17:14;3.47;;;1.20;;
30697;SDS011;17448;47.200;10.902;2023-04-15T10:19:41;5.20;;;1.63;;
30697;SDS011;17448;47.200;10.902;2023-04-15T10:22:07;4.43;;;1.58;;
30697;SDS011;17448;47.200;10.902;2023-04-15T10:24:33;2.58;;;1.35;;
30697;SDS011;17448;47.200;10.902;2023-04-15T10:27:02;4.18;;;1.10;;
30697;SDS011;17448;47.200;10.902;2023-04-15T10:29:29;4.18;;;1.20;;
30697;SDS011;17448;47.200;10.902;2023-04-15T10:31:56;2.33;;;1.42;;
30697;SDS011;17448;47.200;10.902;2023-04-15T10:34:24;3.78;;;1.90;;
30697;SDS011;17448;47.200;10.902;2023-04-15T10:36:54;2.10;;;1.30;;
30697;SDS011;17448;47.200;10.902;2023-04-15T10:44:35;4.55;;;1.30;;
30697;SDS011;17448;47.200;10.902;2023-04-15T10:47:08;3.30;;;1.08;;
30697;SDS011;17448;47.200;10.902;2023-04-15T10:49:42;4.30;;;1.48;;
30697;SDS011;17448;47.200;10.902;2023-04-15T10:52:09;3.70;;;1.40;;
30697;SDS011;17448;47.200;10.902;2023-04-15T10:54:36;5.07;;;1.60;;
30697;SDS011;17448;47.200;10.902;2023-04-15T10:59:36;3.13;;;1.40;;
30697;SDS011;17448;47.200;10.902;2023-04-15T11:02:04;5.88;;;1.63;;
30697;SDS011;17448;47.200;10.902;2023-04-15T11:07:38;2.47;;;1.20;;
30697;SDS011;17448;47.200;10.902;2023-04-15T11:12:58;3.13;;;1.20;;
30697;SDS011;17448;47.200;10.902;2023-04-15T11:15:33;1.45;;;0.98;;
30697;SDS011;17448;47.200;10.902;2023-04-15T11:18:10;2.40;;;1.10;;
30697;SDS011;17448;47.200;10.902;2023-04-15T11:20:37;3.30;;;1.30;;
30697;SDS011;17448;47.200;10.902;2023-04-15T11:23:04;5.45;;;1.20;;
30697;SDS011;17448;47.200;10.902;2023-04-15T11:25:32;7.05;;;1.67;;
30697;SDS011;17448;47.200;10.902;2023-04-15T11:27:59;2.13;;;1.48;;
30697;SDS011;17448;47.200;10.902;2023-04-15T11:30:27;2.47;;;1.45;;
30697;SDS011;17448;47.200;10.902;2023-04-15T11:32:54;1.83;;;1.30;;
30697;SDS011;17448;47.200;10.902;2023-04-15T11:35:22;3.17;;;1.17;;
30697;SDS011;17448;47.200;10.902;2023-04-15T11:37:48;1.70;;;1.02;;
30697;SDS011;17448;47.200;10.902;2023-04-15T11:40:15;4.60;;;1.30;;
30697;SDS011;17448;47.200;10.902;2023-04-15T11:42:43;2.53;;;1.20;;
30697;SDS011;17448;47.200;10.902;2023-04-15T11:45:10;3.53;;;1.10;;
30697;SDS011;17448;47.200;10.902;2023-04-15T11:47:37;6.07;;;1.20;;
30697;SDS011;17448;47.200;10.902;2023-04-15T11:52:41;2.17;;;1.25;;
30697;SDS011;17448;47.200;10.902;2023-04-15T11:55:07;4.45;;;1.27;;
30697;SDS011;17448;47.200;10.902;2023-04-15T11:57:34;3.55;;;1.40;;
30697;SDS011;17448;47.200;10.902;2023-04-15T12:00:00;3.55;;;1.13;;
30697;SDS011;17448;47.200;10.902;2023-04-15T12:02:30;3.58;;;1.20;;
30697;SDS011;17448;47.200;10.902;2023-04-15T12:05:06;3.15;;;1.23;;
30697;SDS011;17448;47.200;10.902;2023-04-15T12:07:33;3.03;;;1.38;;
30697;SDS011;17448;47.200;10.902;2023-04-15T12:10:19;3.00;;;1.00;;
30697;SDS011;17448;47.200;10.902;2023-04-15T12:12:48;2.35;;;0.93;;
30697;SDS011;17448;47.200;10.902;2023-04-15T12:15:14;3.90;;;1.08;;
30697;SDS011;17448;47.200;10.902;2023-04-15T12:17:40;2.42;;;1.02;;
30697;SDS011;17448;47.200;10.902;2023-04-15T12:20:07;4.15;;;1.48;;
30697;SDS011;17448;47.200;10.902;2023-04-15T12:22:36;1.17;;;0.85;;
30697;SDS011;17448;47.200;10.902;2023-04-15T12:25:02;4.50;;;1.33;;
30697;SDS011;17448;47.200;10.902;2023-04-15T12:27:30;5.78;;;1.63;;
30697;SDS011;17448;47.200;10.902;2023-04-15T12:30:03;2.40;;;1.20;;
30697;SDS011;17448;47.200;10.902;2023-04-15T12:32:30;2.55;;;1.40;;
30697;SDS011;17448;47.200;10.902;2023-04-15T12:34:59;3.90;;;1.40;;
30697;SDS011;17448;47.200;10.902;2023-04-15T12:37:26;2.17;;;1.02;;
30697;SDS011;17448;47.200;10.902;2023-04-15T12:39:52;3.50;;;1.73;;
30697;SDS011;17448;47.200;10.902;2023-04-15T12:42:18;1.92;;;1.27;;
30697;SDS011;17448;47.200;10.902;2023-04-15T12:44:46;2.38;;;1.10;;
30697;SDS011;17448;47.200;10.902;2023-04-15T12:47:12;3.78;;;1.20;;
30697;SDS011;17448;47.200;10.902;2023-04-15T12:49:39;2.55;;;0.90;;
30697;SDS011;17448;47.200;10.902;2023-04-15T12:52:05;4.68;;;1.27;;
30697;SDS011;17448;47.200;10.902;2023-04-15T12:54:31;2.70;;;1.08;;
30697;SDS011;17448;47.200;10.902;2023-04-15T12:56:57;5.55;;;1.30;;
30697;SDS011;17448;47.200;10.902;2023-04-15T12:59:24;1.95;;;1.17;;
30697;SDS011;17448;47.200;10.902;2023-04-15T13:01:50;2.65;;;1.20;;
30697;SDS011;17448;47.200;10.902;2023-04-15T13:04:17;2.97;;;1.60;;
30697;SDS011;17448;47.200;10.902;2023-04-15T13:06:44;1.92;;;1.08;;
30697;SDS011;17448;47.200;10.902;2023-04-15T13:09:10;2.67;;;1.45;;
30697;SDS011;17448;47.200;10.902;2023-04-15T13:11:36;2.75;;;1.10;;
30697;SDS011;17448;47.200;10.902;2023-04-15T13:14:03;3.92;;;1.30;;
30697;SDS011;17448;47.200;10.902;2023-04-15T13:16:30;1.75;;;1.20;;
30697;SDS011;17448;47.200;10.902;2023-04-15T13:18:57;1.83;;;1.10;;
30697;SDS011;17448;47.200;10.902;2023-04-15T13:21:24;2.90;;;1.20;;
30697;SDS011;17448;47.200;10.902;2023-04-15T13:23:51;4.43;;;1.25;;
30697;SDS011;17448;47.200;10.902;2023-04-15T13:26:17;2.55;;;1.20;;
30697;SDS011;17448;47.200;10.902;2023-04-15T13:28:44;5.18;;;1.30;;
30697;SDS011;17448;47.200;10.902;2023-04-15T13:31:11;2.22;;;1.17;;
30697;SDS011;17448;47.200;10.902;2023-04-15T13:33:37;3.05;;;1.48;;
30697;SDS011;17448;47.200;10.902;2023-04-15T13:36:03;4.32;;;1.67;;
30697;SDS011;17448;47.200;10.902;2023-04-15T13:38:31;5.63;;;1.30;;
30697;SDS011;17448;47.200;10.902;2023-04-15T13:40:57;3.63;;;1.27;;
30697;SDS011;17448;47.200;10.902;2023-04-15T13:43:24;3.88;;;1.42;;
30697;SDS011;17448;47.200;10.902;2023-04-15T13:45:57;2.30;;;1.10;;
30697;SDS011;17448;47.200;10.902;2023-04-15T13:48:23;2.67;;;1.75;;
30697;SDS011;17448;47.200;10.902;2023-04-15T13:50:50;2.08;;;1.20;;
30697;SDS011;17448;47.200;10.902;2023-04-15T13:53:17;2.22;;;1.15;;
30697;SDS011;17448;47.200;10.902;2023-04-15T13:55:43;1.60;;;1.02;;
30697;SDS011;17448;47.200;10.902;2023-04-15T13:58:09;3.45;;;1.45;;
30697;SDS011;17448;47.200;10.902;2023-04-15T14:00:36;2.40;;;1.50;;
30697;SDS011;17448;47.200;10.902;2023-04-15T14:03:02;3.58;;;1.60;;
30697;SDS011;17448;47.200;10.902;2023-04-15T14:05:29;3.13;;;1.30;;
30697;SDS011;17448;47.200;10.902;2023-04-15T14:07:55;3.13;;;1.30;;
30697;SDS011;17448;47.200;10.902;2023-04-15T14:10:21;3.65;;;1.10;;
30697;SDS011;17448;47.200;10.902;2023-04-15T14:12:47;5.45;;;1.77;;
30697;SDS011;17448;47.200;10.902;2023-04-15T14:15:13;1.77;;;1.20;;
30697;SDS011;17448;47.200;10.902;2023-04-15T14:17:40;3.45;;;1.20;;
30697;SDS011;17448;47.200;10.902;2023-04-15T14:20:07;5.35;;;1.27;;
30697;SDS011;17448;47.200;10.902;2023-04-15T14:22:33;3.72;;;1.95;;
30697;SDS011;17448;47.200;10.902;2023-04-15T14:24:59;3.60;;;1.33;;
30697;SDS011;17448;47.200;10.902;2023-04-15T14:27:26;6.60;;;1.50;;
30697;SDS011;17448;47.200;10.902;2023-04-15T14:29:52;2.03;;;1.00;;
30697;SDS011;17448;47.200;10.902;2023-04-15T14:32:18;2.25;;;1.20;;
30697;SDS011;17448;47.200;10.902;2023-04-15T14:34:44;5.63;;;1.30;;
30697;SDS011;17448;47.200;10.902;2023-04-15T14:37:11;4.65;;;1.20;;
30697;SDS011;17448;47.200;10.902;2023-04-15T14:39:37;5.32;;;1.98;;
30697;SDS011;17448;47.200;10.902;2023-04-15T14:42:04;2.80;;;1.15;;
30697;SDS011;17448;47.200;10.902;2023-04-15T14:44:30;2.92;;;1.38;;
30697;SDS011;17448;47.200;10.902;2023-04-15T14:46:57;1.85;;;1.30;;
30697;SDS011;17448;47.200;10.902;2023-04-15T14:49:23;2.78;;;1.10;;
30697;SDS011;17448;47.200;10.902;2023-04-15T14:51:50;3.22;;;1.15;;